sensor_id;sensor_type;location;lat;lon;timestamp;temperature;humidity
152;DHT22;68;48.792;9.164;2023-03-08T00:01:10;5.00;70.50
152;DHT22;68;48.792;9.164;2023-03-08T00:03:37;5.10;71.20
152;DHT22;68;48.792;9.164;2023-03-08T00:06:04;5.10;71.40
152;DHT22;68;48.792;9.164;2023-03-08T00:08:31;5.20;70.50
152;DHT22;68;48.792;9.164;2023-03-08T00:10:57;5.20;70.30
152;DHT22;68;48.792;9.164;2023-03-08T00:13:24;5.20;70.20
152;DHT22;68;48.792;9.164;2023-03-08T00:15:52;5.30;70.40
152;DHT22;68;48.792;9.164;2023-03-08T00:18:19;5.10;70.80
152;DHT22;68;48.792;9.164;2023-03-08T00:20:46;5.10;70.80
152;DHT22;68;48.792;9.164;2023-03-08T00:23:12;5.20;70.60
152;DHT22;68;48.792;9.164;2023-03-08T00:25:39;5.30;70.80
152;DHT22;68;48.792;9.164;2023-03-08T00:28:06;5.20;70.40
152;DHT22;68;48.792;9.164;2023-03-08T00:30:32;5.10;70.70
152;DHT22;68;48.792;9.164;2023-03-08T00:33:01;5.00;70.70
152;DHT22;68;48.792;9.164;2023-03-08T00:35:27;4.90;71.00
152;DHT22;68;48.792;9.164;2023-03-08T00:37:54;4.80;71.40
152;DHT22;68;48.792;9.164;2023-03-08T00:40:21;4.70;71.60
152;DHT22;68;48.792;9.164;2023-03-08T00:42:47;4.70;71.80
152;DHT22;68;48.792;9.164;2023-03-08T00:45:14;4.80;71.80
152;DHT22;68;48.792;9.164;2023-03-08T00:47:41;4.80;71.90
152;DHT22;68;48.792;9.164;2023-03-08T00:50:10;4.80;72.10
152;DHT22;68;48.792;9.164;2023-03-08T00:52:37;4.80;71.90
152;DHT22;68;48.792;9.164;2023-03-08T00:55:04;4.70;72.20
152;DHT22;68;48.792;9.164;2023-03-08T00:57:31;4.70;72.20
152;DHT22;68;48.792;9.164;2023-03-08T00:59:58;4.80;72.00
152;DHT22;68;48.792;9.164;2023-03-08T01:02:25;4.80;72.00
152;DHT22;68;48.792;9.164;2023-03-08T01:04:51;4.70;72.30
152;DHT22;68;48.792;9.164;2023-03-08T01:07:19;4.80;72.50
152;DHT22;68;48.792;9.164;2023-03-08T01:09:48;4.80;72.30
152;DHT22;68;48.792;9.164;2023-03-08T01:12:14;4.70;72.40
152;DHT22;68;48.792;9.164;2023-03-08T01:14:46;4.60;72.80
152;DHT22;68;48.792;9.164;2023-03-08T01:17:12;4.60;72.70
152;DHT22;68;48.792;9.164;2023-03-08T01:19:39;4.60;72.80
152;DHT22;68;48.792;9.164;2023-03-08T01:22:06;4.50;73.10
152;DHT22;68;48.792;9.164;2023-03-08T01:24:34;4.40;73.50
152;DHT22;68;48.792;9.164;2023-03-08T01:27:01;4.30;73.70
152;DHT22;68;48.792;9.164;2023-03-08T01:29:27;4.20;74.10
152;DHT22;68;48.792;9.164;2023-03-08T01:31:54;4.20;74.50
152;DHT22;68;48.792;9.164;2023-03-08T01:34:21;4.20;74.40
152;DHT22;68;48.792;9.164;2023-03-08T01:36:48;4.20;74.50
152;DHT22;68;48.792;9.164;2023-03-08T01:39:14;4.20;74.90
152;DHT22;68;48.792;9.164;2023-03-08T01:41:42;4.20;74.80
152;DHT22;68;48.792;9.164;2023-03-08T01:44:13;4.20;74.80
152;DHT22;68;48.792;9.164;2023-03-08T01:46:41;4.30;74.80
152;DHT22;68;48.792;9.164;2023-03-08T01:49:11;4.20;75.10
152;DHT22;68;48.792;9.164;2023-03-08T01:51:42;4.10;75.50
152;DHT22;68;48.792;9.164;2023-03-08T01:54:12;4.00;75.70
152;DHT22;68;48.792;9.164;2023-03-08T01:56:40;4.00;75.80
152;DHT22;68;48.792;9.164;2023-03-08T01:59:09;3.90;76.10
152;DHT22;68;48.792;9.164;2023-03-08T02:01:38;4.00;76.20
152;DHT22;68;48.792;9.164;2023-03-08T02:04:06;4.00;75.90
152;DHT22;68;48.792;9.164;2023-03-08T02:06:33;4.00;76.40
152;DHT22;68;48.792;9.164;2023-03-08T02:09:00;3.90;76.40
152;DHT22;68;48.792;9.164;2023-03-08T02:11:30;4.00;76.40
152;DHT22;68;48.792;9.164;2023-03-08T02:13:57;4.00;76.40
152;DHT22;68;48.792;9.164;2023-03-08T02:16:25;4.20;76.40
152;DHT22;68;48.792;9.164;2023-03-08T02:18:54;4.10;75.70
152;DHT22;68;48.792;9.164;2023-03-08T02:21:23;4.10;75.70
152;DHT22;68;48.792;9.164;2023-03-08T02:23:51;4.10;75.90
152;DHT22;68;48.792;9.164;2023-03-08T02:26:18;4.20;75.60
152;DHT22;68;48.792;9.164;2023-03-08T02:28:45;4.10;75.70
152;DHT22;68;48.792;9.164;2023-03-08T02:31:14;4.10;75.90
152;DHT22;68;48.792;9.164;2023-03-08T02:33:41;4.10;75.80
152;DHT22;68;48.792;9.164;2023-03-08T02:36:08;4.20;75.70
152;DHT22;68;48.792;9.164;2023-03-08T02:38:35;4.20;75.60
152;DHT22;68;48.792;9.164;2023-03-08T02:41:04;4.10;75.70
152;DHT22;68;48.792;9.164;2023-03-08T02:43:30;4.20;75.60
152;DHT22;68;48.792;9.164;2023-03-08T02:45:57;4.10;75.90
152;DHT22;68;48.792;9.164;2023-03-08T02:48:24;4.00;75.90
152;DHT22;68;48.792;9.164;2023-03-08T02:50:51;3.90;76.40
152;DHT22;68;48.792;9.164;2023-03-08T02:53:17;4.00;76.40
152;DHT22;68;48.792;9.164;2023-03-08T02:55:44;3.90;76.70
152;DHT22;68;48.792;9.164;2023-03-08T02:58:12;3.80;76.70
152;DHT22;68;48.792;9.164;2023-03-08T03:00:39;3.90;76.80
152;DHT22;68;48.792;9.164;2023-03-08T03:03:06;3.90;76.60
152;DHT22;68;48.792;9.164;2023-03-08T03:05:33;3.90;76.30
152;DHT22;68;48.792;9.164;2023-03-08T03:08:00;3.90;76.60
152;DHT22;68;48.792;9.164;2023-03-08T03:10:27;3.90;76.70
152;DHT22;68;48.792;9.164;2023-03-08T03:12:53;3.90;76.70
152;DHT22;68;48.792;9.164;2023-03-08T03:15:22;4.00;76.40
152;DHT22;68;48.792;9.164;2023-03-08T03:17:48;4.20;76.10
152;DHT22;68;48.792;9.164;2023-03-08T03:20:15;4.20;75.70
152;DHT22;68;48.792;9.164;2023-03-08T03:22:42;4.30;75.60
152;DHT22;68;48.792;9.164;2023-03-08T03:25:09;4.50;75.20
152;DHT22;68;48.792;9.164;2023-03-08T03:27:36;4.60;74.60
152;DHT22;68;48.792;9.164;2023-03-08T03:30:04;4.60;74.20
152;DHT22;68;48.792;9.164;2023-03-08T03:32:33;4.60;74.30
152;DHT22;68;48.792;9.164;2023-03-08T03:35:00;4.70;74.60
152;DHT22;68;48.792;9.164;2023-03-08T03:37:27;4.60;74.90
152;DHT22;68;48.792;9.164;2023-03-08T03:39:54;4.70;74.90
152;DHT22;68;48.792;9.164;2023-03-08T03:42:20;4.80;74.20
152;DHT22;68;48.792;9.164;2023-03-08T03:44:47;4.90;73.80
152;DHT22;68;48.792;9.164;2023-03-08T03:47:14;4.80;73.20
152;DHT22;68;48.792;9.164;2023-03-08T03:49:42;4.60;73.90
152;DHT22;68;48.792;9.164;2023-03-08T03:52:09;4.20;74.70
152;DHT22;68;48.792;9.164;2023-03-08T03:54:35;4.10;75.50
152;DHT22;68;48.792;9.164;2023-03-08T03:57:02;4.10;75.80
152;DHT22;68;48.792;9.164;2023-03-08T03:59:29;4.20;75.50
152;DHT22;68;48.792;9.164;2023-03-08T04:01:58;4.10;75.60
152;DHT22;68;48.792;9.164;2023-03-08T04:04:25;4.10;75.40
152;DHT22;68;48.792;9.164;2023-03-08T04:06:53;4.20;75.30
152;DHT22;68;48.792;9.164;2023-03-08T04:09:20;4.20;75.50
152;DHT22;68;48.792;9.164;2023-03-08T04:11:47;4.20;75.50
152;DHT22;68;48.792;9.164;2023-03-08T04:14:14;4.30;76.10
152;DHT22;68;48.792;9.164;2023-03-08T04:16:41;4.30;75.40
152;DHT22;68;48.792;9.164;2023-03-08T04:19:10;4.40;75.50
152;DHT22;68;48.792;9.164;2023-03-08T04:21:37;4.40;75.00
152;DHT22;68;48.792;9.164;2023-03-08T04:24:06;4.40;74.50
152;DHT22;68;48.792;9.164;2023-03-08T04:26:33;4.30;75.10
152;DHT22;68;48.792;9.164;2023-03-08T04:29:00;4.50;75.00
152;DHT22;68;48.792;9.164;2023-03-08T04:31:30;4.40;74.90
152;DHT22;68;48.792;9.164;2023-03-08T04:33:59;4.40;75.20
152;DHT22;68;48.792;9.164;2023-03-08T04:36:26;4.40;75.50
152;DHT22;68;48.792;9.164;2023-03-08T04:38:52;4.50;75.00
152;DHT22;68;48.792;9.164;2023-03-08T04:41:21;4.60;74.60
152;DHT22;68;48.792;9.164;2023-03-08T04:43:49;4.60;74.60
152;DHT22;68;48.792;9.164;2023-03-08T04:46:17;4.50;74.50
152;DHT22;68;48.792;9.164;2023-03-08T04:48:45;4.60;74.90
152;DHT22;68;48.792;9.164;2023-03-08T04:51:13;4.50;74.60
152;DHT22;68;48.792;9.164;2023-03-08T04:53:40;4.40;74.80
152;DHT22;68;48.792;9.164;2023-03-08T04:56:10;4.40;75.10
152;DHT22;68;48.792;9.164;2023-03-08T04:58:39;4.40;75.00
152;DHT22;68;48.792;9.164;2023-03-08T05:01:11;4.20;75.40
152;DHT22;68;48.792;9.164;2023-03-08T05:03:38;4.20;75.80
152;DHT22;68;48.792;9.164;2023-03-08T05:06:05;4.00;75.90
152;DHT22;68;48.792;9.164;2023-03-08T05:08:32;4.00;76.00
152;DHT22;68;48.792;9.164;2023-03-08T05:11:00;4.00;76.30
152;DHT22;68;48.792;9.164;2023-03-08T05:13:28;4.00;76.30
152;DHT22;68;48.792;9.164;2023-03-08T05:15:57;4.00;76.30
152;DHT22;68;48.792;9.164;2023-03-08T05:18:24;4.20;76.30
152;DHT22;68;48.792;9.164;2023-03-08T05:20:54;4.20;76.00
152;DHT22;68;48.792;9.164;2023-03-08T05:23:21;4.30;75.80
152;DHT22;68;48.792;9.164;2023-03-08T05:25:51;4.30;76.10
152;DHT22;68;48.792;9.164;2023-03-08T05:28:18;4.20;76.10
152;DHT22;68;48.792;9.164;2023-03-08T05:30:45;4.20;76.40
152;DHT22;68;48.792;9.164;2023-03-08T05:33:13;4.20;76.40
152;DHT22;68;48.792;9.164;2023-03-08T05:35:40;4.10;76.50
152;DHT22;68;48.792;9.164;2023-03-08T05:38:06;4.10;76.90
152;DHT22;68;48.792;9.164;2023-03-08T05:40:33;4.10;76.80
152;DHT22;68;48.792;9.164;2023-03-08T05:43:01;4.10;76.80
152;DHT22;68;48.792;9.164;2023-03-08T05:45:28;4.10;76.90
152;DHT22;68;48.792;9.164;2023-03-08T05:47:54;4.30;76.60
152;DHT22;68;48.792;9.164;2023-03-08T05:50:22;4.30;76.30
152;DHT22;68;48.792;9.164;2023-03-08T05:52:49;4.30;76.20
152;DHT22;68;48.792;9.164;2023-03-08T05:55:16;4.40;76.10
152;DHT22;68;48.792;9.164;2023-03-08T05:57:44;4.40;76.10
152;DHT22;68;48.792;9.164;2023-03-08T06:00:11;4.30;76.20
152;DHT22;68;48.792;9.164;2023-03-08T06:02:38;4.40;76.20
152;DHT22;68;48.792;9.164;2023-03-08T06:05:06;4.40;76.30
152;DHT22;68;48.792;9.164;2023-03-08T06:07:34;4.50;76.20
152;DHT22;68;48.792;9.164;2023-03-08T06:10:01;4.60;75.70
152;DHT22;68;48.792;9.164;2023-03-08T06:12:28;4.60;75.70
152;DHT22;68;48.792;9.164;2023-03-08T06:14:55;4.60;75.60
152;DHT22;68;48.792;9.164;2023-03-08T06:17:22;4.70;76.00
152;DHT22;68;48.792;9.164;2023-03-08T06:19:48;4.90;75.50
152;DHT22;68;48.792;9.164;2023-03-08T06:22:15;4.80;75.30
152;DHT22;68;48.792;9.164;2023-03-08T06:24:44;4.80;75.50
152;DHT22;68;48.792;9.164;2023-03-08T06:27:14;4.60;76.00
152;DHT22;68;48.792;9.164;2023-03-08T06:29:40;4.70;76.10
152;DHT22;68;48.792;9.164;2023-03-08T06:32:07;4.90;75.90
152;DHT22;68;48.792;9.164;2023-03-08T06:34:34;4.80;75.70
152;DHT22;68;48.792;9.164;2023-03-08T06:37:01;4.90;75.90
152;DHT22;68;48.792;9.164;2023-03-08T06:39:28;4.80;76.20
152;DHT22;68;48.792;9.164;2023-03-08T06:41:57;4.80;76.30
152;DHT22;68;48.792;9.164;2023-03-08T06:44:25;4.90;76.70
152;DHT22;68;48.792;9.164;2023-03-08T06:46:52;4.80;76.60
152;DHT22;68;48.792;9.164;2023-03-08T06:49:19;4.90;77.30
152;DHT22;68;48.792;9.164;2023-03-08T06:51:46;4.90;76.70
152;DHT22;68;48.792;9.164;2023-03-08T06:54:13;5.00;76.70
152;DHT22;68;48.792;9.164;2023-03-08T06:56:42;5.20;76.60
152;DHT22;68;48.792;9.164;2023-03-08T06:59:10;5.10;76.40
152;DHT22;68;48.792;9.164;2023-03-08T07:01:37;5.10;76.90
152;DHT22;68;48.792;9.164;2023-03-08T07:04:04;5.10;76.80
152;DHT22;68;48.792;9.164;2023-03-08T07:06:31;5.30;77.00
152;DHT22;68;48.792;9.164;2023-03-08T07:08:58;5.40;77.40
152;DHT22;68;48.792;9.164;2023-03-08T07:11:24;5.60;76.70
152;DHT22;68;48.792;9.164;2023-03-08T07:13:54;5.70;75.60
152;DHT22;68;48.792;9.164;2023-03-08T07:16:22;5.60;76.20
152;DHT22;68;48.792;9.164;2023-03-08T07:18:49;5.50;76.20
152;DHT22;68;48.792;9.164;2023-03-08T07:21:15;5.50;76.20
152;DHT22;68;48.792;9.164;2023-03-08T07:23:42;5.40;76.40
152;DHT22;68;48.792;9.164;2023-03-08T07:26:09;5.60;76.60
152;DHT22;68;48.792;9.164;2023-03-08T07:28:36;5.60;76.30
152;DHT22;68;48.792;9.164;2023-03-08T07:31:03;5.60;76.60
152;DHT22;68;48.792;9.164;2023-03-08T07:33:32;5.60;76.00
152;DHT22;68;48.792;9.164;2023-03-08T07:35:59;5.60;75.90
152;DHT22;68;48.792;9.164;2023-03-08T07:38:27;5.40;76.90
152;DHT22;68;48.792;9.164;2023-03-08T07:40:54;5.50;76.40
152;DHT22;68;48.792;9.164;2023-03-08T07:43:21;5.60;76.10
152;DHT22;68;48.792;9.164;2023-03-08T07:45:48;5.70;76.20
152;DHT22;68;48.792;9.164;2023-03-08T07:48:15;5.70;76.10
152;DHT22;68;48.792;9.164;2023-03-08T07:50:43;5.70;75.70
152;DHT22;68;48.792;9.164;2023-03-08T07:53:09;5.60;75.90
152;DHT22;68;48.792;9.164;2023-03-08T07:55:36;5.60;76.50
152;DHT22;68;48.792;9.164;2023-03-08T07:58:03;5.80;76.30
152;DHT22;68;48.792;9.164;2023-03-08T08:00:30;6.00;75.20
152;DHT22;68;48.792;9.164;2023-03-08T08:02:57;5.80;75.50
152;DHT22;68;48.792;9.164;2023-03-08T08:05:24;5.90;75.80
152;DHT22;68;48.792;9.164;2023-03-08T08:07:52;5.70;76.50
152;DHT22;68;48.792;9.164;2023-03-08T08:10:19;5.80;76.80
152;DHT22;68;48.792;9.164;2023-03-08T08:12:46;5.70;78.10
152;DHT22;68;48.792;9.164;2023-03-08T08:15:13;5.70;78.20
152;DHT22;68;48.792;9.164;2023-03-08T08:17:40;5.80;78.40
152;DHT22;68;48.792;9.164;2023-03-08T08:20:08;6.00;78.50
152;DHT22;68;48.792;9.164;2023-03-08T08:22:35;5.90;79.10
152;DHT22;68;48.792;9.164;2023-03-08T08:25:05;5.90;79.90
152;DHT22;68;48.792;9.164;2023-03-08T08:27:33;6.00;80.20
152;DHT22;68;48.792;9.164;2023-03-08T08:30:00;5.90;80.90
152;DHT22;68;48.792;9.164;2023-03-08T08:32:27;6.00;80.80
152;DHT22;68;48.792;9.164;2023-03-08T08:34:53;6.10;80.60
152;DHT22;68;48.792;9.164;2023-03-08T08:37:20;6.10;80.60
152;DHT22;68;48.792;9.164;2023-03-08T08:39:47;6.20;81.40
152;DHT22;68;48.792;9.164;2023-03-08T08:42:15;6.40;81.00
152;DHT22;68;48.792;9.164;2023-03-08T08:44:42;6.30;82.10
152;DHT22;68;48.792;9.164;2023-03-08T08:47:09;6.40;82.30
152;DHT22;68;48.792;9.164;2023-03-08T08:49:36;6.50;83.30
152;DHT22;68;48.792;9.164;2023-03-08T08:52:04;6.40;84.10
152;DHT22;68;48.792;9.164;2023-03-08T08:54:31;6.30;86.20
152;DHT22;68;48.792;9.164;2023-03-08T08:56:58;6.40;86.90
152;DHT22;68;48.792;9.164;2023-03-08T08:59:26;6.50;87.20
152;DHT22;68;48.792;9.164;2023-03-08T09:01:53;6.40;86.90
152;DHT22;68;48.792;9.164;2023-03-08T09:04:20;6.10;84.60
152;DHT22;68;48.792;9.164;2023-03-08T09:06:47;6.20;85.40
152;DHT22;68;48.792;9.164;2023-03-08T09:09:14;6.10;85.30
152;DHT22;68;48.792;9.164;2023-03-08T09:11:41;6.10;85.70
152;DHT22;68;48.792;9.164;2023-03-08T09:14:08;6.10;84.90
152;DHT22;68;48.792;9.164;2023-03-08T09:16:36;6.10;84.50
152;DHT22;68;48.792;9.164;2023-03-08T09:19:04;5.90;85.30
152;DHT22;68;48.792;9.164;2023-03-08T09:21:31;6.00;85.30
152;DHT22;68;48.792;9.164;2023-03-08T09:24:00;6.10;85.60
152;DHT22;68;48.792;9.164;2023-03-08T09:26:28;6.10;84.80
152;DHT22;68;48.792;9.164;2023-03-08T09:28:55;6.20;85.30
152;DHT22;68;48.792;9.164;2023-03-08T09:31:23;6.10;85.10
152;DHT22;68;48.792;9.164;2023-03-08T09:33:51;6.20;84.70
152;DHT22;68;48.792;9.164;2023-03-08T09:36:19;6.40;84.60
152;DHT22;68;48.792;9.164;2023-03-08T09:38:47;6.20;83.70
152;DHT22;68;48.792;9.164;2023-03-08T09:41:26;6.10;83.90
152;DHT22;68;48.792;9.164;2023-03-08T09:44:05;6.10;84.40
152;DHT22;68;48.792;9.164;2023-03-08T09:46:38;6.30;83.40
152;DHT22;68;48.792;9.164;2023-03-08T09:49:11;6.10;83.00
152;DHT22;68;48.792;9.164;2023-03-08T09:51:43;6.20;82.50
152;DHT22;68;48.792;9.164;2023-03-08T09:54:14;6.20;82.50
152;DHT22;68;48.792;9.164;2023-03-08T09:56:45;6.30;83.20
152;DHT22;68;48.792;9.164;2023-03-08T09:59:18;6.40;83.20
152;DHT22;68;48.792;9.164;2023-03-08T10:01:51;6.70;83.20
152;DHT22;68;48.792;9.164;2023-03-08T10:04:34;6.70;82.70
152;DHT22;68;48.792;9.164;2023-03-08T10:07:18;6.80;83.00
152;DHT22;68;48.792;9.164;2023-03-08T10:09:54;6.80;82.30
152;DHT22;68;48.792;9.164;2023-03-08T10:12:27;6.80;82.10
152;DHT22;68;48.792;9.164;2023-03-08T10:14:59;6.80;82.80
152;DHT22;68;48.792;9.164;2023-03-08T10:17:36;6.90;83.40
152;DHT22;68;48.792;9.164;2023-03-08T10:20:13;7.00;83.60
152;DHT22;68;48.792;9.164;2023-03-08T10:22:52;7.30;83.90
152;DHT22;68;48.792;9.164;2023-03-08T10:25:22;7.40;84.10
152;DHT22;68;48.792;9.164;2023-03-08T10:27:52;7.40;84.50
152;DHT22;68;48.792;9.164;2023-03-08T10:30:21;7.50;86.00
152;DHT22;68;48.792;9.164;2023-03-08T10:32:50;7.60;87.40
152;DHT22;68;48.792;9.164;2023-03-08T10:35:31;7.80;87.80
152;DHT22;68;48.792;9.164;2023-03-08T10:37:58;8.00;88.00
152;DHT22;68;48.792;9.164;2023-03-08T10:40:25;8.10;88.60
152;DHT22;68;48.792;9.164;2023-03-08T10:42:54;8.30;88.70
152;DHT22;68;48.792;9.164;2023-03-08T10:45:24;8.60;87.90
152;DHT22;68;48.792;9.164;2023-03-08T10:47:56;8.70;88.10
152;DHT22;68;48.792;9.164;2023-03-08T10:50:26;8.80;87.90
152;DHT22;68;48.792;9.164;2023-03-08T10:52:53;9.00;88.10
152;DHT22;68;48.792;9.164;2023-03-08T10:55:21;9.30;87.60
152;DHT22;68;48.792;9.164;2023-03-08T10:57:51;9.50;86.90
152;DHT22;68;48.792;9.164;2023-03-08T11:00:29;9.70;86.50
152;DHT22;68;48.792;9.164;2023-03-08T11:03:14;10.00;85.40
152;DHT22;68;48.792;9.164;2023-03-08T11:05:53;10.20;84.40
152;DHT22;68;48.792;9.164;2023-03-08T11:08:21;10.30;84.60
152;DHT22;68;48.792;9.164;2023-03-08T11:11:05;10.50;84.50
152;DHT22;68;48.792;9.164;2023-03-08T11:13:35;10.50;84.30
152;DHT22;68;48.792;9.164;2023-03-08T11:16:07;10.50;84.50
152;DHT22;68;48.792;9.164;2023-03-08T11:18:49;10.70;84.20
152;DHT22;68;48.792;9.164;2023-03-08T11:21:25;10.80;84.20
152;DHT22;68;48.792;9.164;2023-03-08T11:24:05;10.80;83.80
152;DHT22;68;48.792;9.164;2023-03-08T11:26:39;10.80;84.20
152;DHT22;68;48.792;9.164;2023-03-08T11:29:19;10.80;84.10
152;DHT22;68;48.792;9.164;2023-03-08T11:31:55;10.70;84.80
152;DHT22;68;48.792;9.164;2023-03-08T11:34:36;10.50;85.20
152;DHT22;68;48.792;9.164;2023-03-08T11:37:12;10.60;85.30
152;DHT22;68;48.792;9.164;2023-03-08T11:39:45;10.70;85.00
152;DHT22;68;48.792;9.164;2023-03-08T11:42:20;10.70;85.40
152;DHT22;68;48.792;9.164;2023-03-08T11:45:05;10.70;85.30
152;DHT22;68;48.792;9.164;2023-03-08T11:50:30;11.00;84.40
152;DHT22;68;48.792;9.164;2023-03-08T11:53:08;11.20;84.10
152;DHT22;68;48.792;9.164;2023-03-08T11:55:56;11.20;83.80
152;DHT22;68;48.792;9.164;2023-03-08T11:58:29;11.30;83.90
152;DHT22;68;48.792;9.164;2023-03-08T12:01:00;11.20;84.10
152;DHT22;68;48.792;9.164;2023-03-08T12:03:30;11.20;84.10
152;DHT22;68;48.792;9.164;2023-03-08T12:06:00;11.20;84.10
152;DHT22;68;48.792;9.164;2023-03-08T12:08:34;11.20;84.40
152;DHT22;68;48.792;9.164;2023-03-08T12:11:04;11.10;84.70
152;DHT22;68;48.792;9.164;2023-03-08T12:13:33;11.20;84.50
152;DHT22;68;48.792;9.164;2023-03-08T12:16:06;11.20;84.50
152;DHT22;68;48.792;9.164;2023-03-08T12:18:39;11.40;84.30
152;DHT22;68;48.792;9.164;2023-03-08T12:21:15;11.40;84.20
152;DHT22;68;48.792;9.164;2023-03-08T12:23:50;11.50;84.00
152;DHT22;68;48.792;9.164;2023-03-08T12:26:23;11.70;83.80
152;DHT22;68;48.792;9.164;2023-03-08T12:28:54;11.70;83.60
152;DHT22;68;48.792;9.164;2023-03-08T12:31:25;11.80;83.60
152;DHT22;68;48.792;9.164;2023-03-08T12:33:53;11.80;83.30
152;DHT22;68;48.792;9.164;2023-03-08T12:36:21;11.90;83.80
152;DHT22;68;48.792;9.164;2023-03-08T12:39:07;11.90;83.50
152;DHT22;68;48.792;9.164;2023-03-08T12:41:34;11.90;83.50
152;DHT22;68;48.792;9.164;2023-03-08T12:44:03;11.80;83.90
152;DHT22;68;48.792;9.164;2023-03-08T12:46:45;11.80;83.90
152;DHT22;68;48.792;9.164;2023-03-08T12:49:21;11.90;83.90
152;DHT22;68;48.792;9.164;2023-03-08T12:52:00;12.00;83.30
152;DHT22;68;48.792;9.164;2023-03-08T12:54:31;12.30;83.30
152;DHT22;68;48.792;9.164;2023-03-08T12:57:00;12.40;81.80
152;DHT22;68;48.792;9.164;2023-03-08T12:59:33;12.50;82.30
152;DHT22;68;48.792;9.164;2023-03-08T13:02:18;12.70;81.70
152;DHT22;68;48.792;9.164;2023-03-08T13:04:47;12.80;81.10
152;DHT22;68;48.792;9.164;2023-03-08T13:07:24;12.80;81.20
152;DHT22;68;48.792;9.164;2023-03-08T13:09:57;12.60;81.60
152;DHT22;68;48.792;9.164;2023-03-08T13:12:37;12.70;81.70
152;DHT22;68;48.792;9.164;2023-03-08T13:15:20;12.60;81.90
152;DHT22;68;48.792;9.164;2023-03-08T13:17:49;12.50;82.20
152;DHT22;68;48.792;9.164;2023-03-08T13:20:19;12.50;82.30
152;DHT22;68;48.792;9.164;2023-03-08T13:23:01;12.70;82.10
152;DHT22;68;48.792;9.164;2023-03-08T13:25:43;13.00;81.30
152;DHT22;68;48.792;9.164;2023-03-08T13:28:14;13.40;81.00
152;DHT22;68;48.792;9.164;2023-03-08T13:30:44;13.50;79.80
152;DHT22;68;48.792;9.164;2023-03-08T13:33:13;13.40;80.00
152;DHT22;68;48.792;9.164;2023-03-08T13:35:40;13.20;80.60
152;DHT22;68;48.792;9.164;2023-03-08T13:38:20;13.10;81.20
152;DHT22;68;48.792;9.164;2023-03-08T13:40:51;13.00;82.00
152;DHT22;68;48.792;9.164;2023-03-08T13:43:20;13.10;81.80
152;DHT22;68;48.792;9.164;2023-03-08T13:45:47;13.30;81.50
152;DHT22;68;48.792;9.164;2023-03-08T13:48:15;13.20;81.60
152;DHT22;68;48.792;9.164;2023-03-08T13:50:43;13.20;81.70
152;DHT22;68;48.792;9.164;2023-03-08T13:53:15;13.30;81.70
152;DHT22;68;48.792;9.164;2023-03-08T13:55:44;13.30;81.40
152;DHT22;68;48.792;9.164;2023-03-08T13:58:20;13.40;81.60
152;DHT22;68;48.792;9.164;2023-03-08T14:00:57;13.30;81.40
152;DHT22;68;48.792;9.164;2023-03-08T14:03:26;13.10;81.90
152;DHT22;68;48.792;9.164;2023-03-08T14:05:54;13.10;82.30
152;DHT22;68;48.792;9.164;2023-03-08T14:08:22;13.20;81.80
152;DHT22;68;48.792;9.164;2023-03-08T14:10:52;13.40;81.50
152;DHT22;68;48.792;9.164;2023-03-08T14:13:24;13.70;81.00
152;DHT22;68;48.792;9.164;2023-03-08T14:15:55;14.00;79.60
152;DHT22;68;48.792;9.164;2023-03-08T14:18:24;13.80;79.50
152;DHT22;68;48.792;9.164;2023-03-08T14:21:02;13.70;79.90
152;DHT22;68;48.792;9.164;2023-03-08T14:23:33;13.50;80.30
152;DHT22;68;48.792;9.164;2023-03-08T14:26:02;13.40;80.50
152;DHT22;68;48.792;9.164;2023-03-08T14:28:35;13.40;81.20
152;DHT22;68;48.792;9.164;2023-03-08T14:31:02;13.30;81.10
152;DHT22;68;48.792;9.164;2023-03-08T14:33:29;13.30;81.40
152;DHT22;68;48.792;9.164;2023-03-08T14:35:57;13.40;81.50
152;DHT22;68;48.792;9.164;2023-03-08T14:38:26;13.40;81.20
152;DHT22;68;48.792;9.164;2023-03-08T14:40:55;13.40;81.10
152;DHT22;68;48.792;9.164;2023-03-08T14:43:23;13.30;81.80
152;DHT22;68;48.792;9.164;2023-03-08T14:45:54;13.30;81.80
152;DHT22;68;48.792;9.164;2023-03-08T14:48:23;13.40;81.70
152;DHT22;68;48.792;9.164;2023-03-08T14:50:53;13.30;81.60
152;DHT22;68;48.792;9.164;2023-03-08T14:53:29;13.10;83.00
152;DHT22;68;48.792;9.164;2023-03-08T14:55:58;13.00;84.20
152;DHT22;68;48.792;9.164;2023-03-08T14:58:27;13.00;84.00
152;DHT22;68;48.792;9.164;2023-03-08T15:00:58;13.00;83.80
152;DHT22;68;48.792;9.164;2023-03-08T15:03:26;13.00;83.90
152;DHT22;68;48.792;9.164;2023-03-08T15:05:54;13.00;84.10
152;DHT22;68;48.792;9.164;2023-03-08T15:08:21;12.90;84.60
152;DHT22;68;48.792;9.164;2023-03-08T15:10:48;12.90;84.70
152;DHT22;68;48.792;9.164;2023-03-08T15:13:17;12.80;85.40
152;DHT22;68;48.792;9.164;2023-03-08T15:15:45;12.90;85.50
152;DHT22;68;48.792;9.164;2023-03-08T15:18:13;13.00;85.40
152;DHT22;68;48.792;9.164;2023-03-08T15:20:42;13.00;85.30
152;DHT22;68;48.792;9.164;2023-03-08T15:23:12;13.00;85.20
152;DHT22;68;48.792;9.164;2023-03-08T15:25:42;13.00;85.20
152;DHT22;68;48.792;9.164;2023-03-08T15:28:12;13.10;85.30
152;DHT22;68;48.792;9.164;2023-03-08T15:30:39;12.90;85.60
152;DHT22;68;48.792;9.164;2023-03-08T15:33:06;12.80;86.20
152;DHT22;68;48.792;9.164;2023-03-08T15:35:35;12.70;86.60
152;DHT22;68;48.792;9.164;2023-03-08T15:38:02;12.60;86.80
152;DHT22;68;48.792;9.164;2023-03-08T15:40:31;12.60;87.00
152;DHT22;68;48.792;9.164;2023-03-08T15:42:58;12.70;86.70
152;DHT22;68;48.792;9.164;2023-03-08T15:45:25;12.60;87.00
152;DHT22;68;48.792;9.164;2023-03-08T15:47:56;12.60;87.00
152;DHT22;68;48.792;9.164;2023-03-08T15:50:23;12.70;86.80
152;DHT22;68;48.792;9.164;2023-03-08T15:52:52;12.50;86.80
152;DHT22;68;48.792;9.164;2023-03-08T15:55:20;12.60;87.00
152;DHT22;68;48.792;9.164;2023-03-08T15:57:47;12.50;87.30
152;DHT22;68;48.792;9.164;2023-03-08T16:00:16;12.50;87.30
152;DHT22;68;48.792;9.164;2023-03-08T16:02:43;12.40;87.40
152;DHT22;68;48.792;9.164;2023-03-08T16:05:11;12.50;87.60
152;DHT22;68;48.792;9.164;2023-03-08T16:07:38;12.40;87.80
152;DHT22;68;48.792;9.164;2023-03-08T16:10:09;12.50;87.60
152;DHT22;68;48.792;9.164;2023-03-08T16:12:36;12.40;87.60
152;DHT22;68;48.792;9.164;2023-03-08T16:15:04;12.40;87.60
152;DHT22;68;48.792;9.164;2023-03-08T16:17:31;12.40;87.80
152;DHT22;68;48.792;9.164;2023-03-08T16:19:57;12.50;87.80
152;DHT22;68;48.792;9.164;2023-03-08T16:22:24;12.40;87.70
152;DHT22;68;48.792;9.164;2023-03-08T16:24:51;12.40;88.10
152;DHT22;68;48.792;9.164;2023-03-08T16:27:19;12.30;90.00
152;DHT22;68;48.792;9.164;2023-03-08T16:29:49;12.20;90.60
152;DHT22;68;48.792;9.164;2023-03-08T16:32:16;12.20;91.30
152;DHT22;68;48.792;9.164;2023-03-08T16:34:43;12.20;91.50
152;DHT22;68;48.792;9.164;2023-03-08T16:37:15;12.20;92.40
152;DHT22;68;48.792;9.164;2023-03-08T16:39:42;12.20;91.60
152;DHT22;68;48.792;9.164;2023-03-08T16:42:10;12.30;91.30
152;DHT22;68;48.792;9.164;2023-03-08T16:44:39;12.10;91.50
152;DHT22;68;48.792;9.164;2023-03-08T16:47:06;12.10;91.50
152;DHT22;68;48.792;9.164;2023-03-08T16:49:34;12.20;91.40
152;DHT22;68;48.792;9.164;2023-03-08T16:52:01;12.00;91.90
152;DHT22;68;48.792;9.164;2023-03-08T16:54:29;12.00;92.20
152;DHT22;68;48.792;9.164;2023-03-08T16:56:56;11.90;93.00
152;DHT22;68;48.792;9.164;2023-03-08T16:59:22;11.80;93.50
152;DHT22;68;48.792;9.164;2023-03-08T17:01:50;11.80;94.00
152;DHT22;68;48.792;9.164;2023-03-08T17:04:17;11.60;94.50
152;DHT22;68;48.792;9.164;2023-03-08T17:06:45;11.60;94.80
152;DHT22;68;48.792;9.164;2023-03-08T17:09:12;11.60;94.80
152;DHT22;68;48.792;9.164;2023-03-08T17:11:38;11.50;94.80
152;DHT22;68;48.792;9.164;2023-03-08T17:14:08;11.50;94.90
152;DHT22;68;48.792;9.164;2023-03-08T17:16:36;11.60;94.90
152;DHT22;68;48.792;9.164;2023-03-08T17:19:07;11.60;94.90